This is the latest recevied weather packets stored in our database for station/object NY3Q. If no packets are shown the sender has not sent any weather packets the latest 10 day(s).
| Time | Temp. | Humidity | Pressure | Rain* | Wind** | Luminosity | Snow |
|---|---|---|---|---|---|---|---|
| 1777490634 | 34.44° C | 40% | 1012.2 hPa | 0 mm | - | 604 W/m² | - |
| 1777490330 | 34.44° C | 41% | 1012.2 hPa | 0 mm | - | 596 W/m² | - |
| 1777490029 | 34.44° C | 42% | 1012.2 hPa | 0 mm | - | 600 W/m² | - |
| 1777489726 | 33.89° C | 41% | 1012.3 hPa | 0 mm | - | 624 W/m² | - |
| 1777489423 | 35° C | 41% | 1012.5 hPa | 0 mm | - | 149 W/m² | - |
| 1777489120 | 35° C | 43% | 1012.4 hPa | 0 mm | - | 650 W/m² | - |
| 1777488817 | 34.44° C | 45% | 1012.8 hPa | 0 mm | - | 664 W/m² | - |
| 1777488514 | 34.44° C | 45% | 1012.7 hPa | 0 mm | - | 185 W/m² | - |
| 1777488212 | 34.44° C | 45% | 1013 hPa | 0 mm | - | 674 W/m² | - |
| 1777487910 | 34.44° C | 46% | 1012.9 hPa | 0 mm | - | 696 W/m² | - |
| 1777487607 | 33.33° C | 48% | 1013.1 hPa | 0 mm | - | 671 W/m² | - |
| 1777487305 | 32.22° C | 51% | 1012.9 hPa | 0 mm | - | 693 W/m² | - |
| 1777487002 | 31.11° C | 54% | 1013.1 hPa | 0 mm | - | 680 W/m² | - |
| 1777486698 | 31.11° C | 52% | 1013.4 hPa | 0 mm | - | 299 W/m² | - |
| 1777486396 | 31.11° C | 52% | 1013.1 hPa | 0 mm | - | 222 W/m² | - |
| 1777486093 | 31.67° C | 50% | 1013.3 hPa | 0 mm | - | 212 W/m² | - |
| 1777485789 | 31.67° C | 50% | 1013.6 hPa | 0 mm | - | 192 W/m² | - |
| 1777485485 | 32.22° C | 50% | 1013.4 hPa | 0 mm | - | 261 W/m² | - |
| 1777485181 | 32.78° C | 49% | 1013.8 hPa | 0 mm | - | 309 W/m² | - |
| 1777484877 | 32.78° C | 48% | 1013.8 hPa | 0 mm | - | 382 W/m² | - |
| 1777484575 | 33.33° C | 46% | 1014.2 hPa | 0 mm | - | 525 W/m² | - |
| 1777484271 | 33.89° C | 47% | 1014.1 hPa | 0 mm | - | 560 W/m² | - |
| 1777483967 | 33.89° C | 46% | 1014.5 hPa | 0 mm | - | 658 W/m² | - |
| 1777483664 | 33.89° C | 47% | 1014.3 hPa | 0 mm | - | 687 W/m² | - |
| 1777483359 | 33.89° C | 48% | 1014.4 hPa | 0 mm | - | 679 W/m² | - |
* Rain latest hour (hover to see other rain measurements)
** Current wind speed in m/s (hover to see current wind gust speed)